Time;durP1;ratioP1;P1;durP2;ratioP2;P2;SDS_P1;SDS_P2;PMS_P1;PMS_P2;Temp;Humidity;BMP_temperature;BMP_pressure;BME280_temperature;BME280_humidity;BME280_pressure;Samples;Min_cycle;Max_cycle;Signal;HPM_P1;HPM_P2
2021/06/26 00:02:20;;;;;;;43.90;31.23;;;15.50;95.00;;;;;;4994350;28;20392;-53
2021/06/26 00:04:46;;;;;;;42.97;31.00;;;15.50;95.00;;;;;;4993690;28;20122;-54
2021/06/26 00:07:11;;;;;;;46.47;32.25;;;15.50;94.90;;;;;;5016148;28;20038;-53
2021/06/26 00:09:37;;;;;;;48.65;32.17;;;15.50;94.90;;;;;;5006491;28;20053;-53
2021/06/26 00:12:03;;;;;;;51.35;31.73;;;15.50;94.90;;;;;;5014466;28;20046;-51
2021/06/26 00:14:29;;;;;;;47.55;31.85;;;15.60;95.00;;;;;;5036423;28;20048;-50
2021/06/26 00:16:55;;;;;;;42.72;31.83;;;15.50;95.00;;;;;;5035050;28;20033;-54
2021/06/26 00:19:20;;;;;;;44.47;31.98;;;15.50;95.00;;;;;;5015825;28;20510;-52
2021/06/26 00:21:46;;;;;;;35.28;25.42;;;15.60;94.90;;;;;;5013613;28;20189;-50
2021/06/26 00:24:12;;;;;;;35.97;23.58;;;15.50;94.90;;;;;;4996142;28;20073;-53
2021/06/26 00:26:38;;;;;;;31.58;23.40;;;15.50;95.00;;;;;;5013469;28;20050;-53
2021/06/26 00:29:04;;;;;;;31.45;24.13;;;15.50;94.80;;;;;;5016015;28;20037;-50
2021/06/26 00:31:29;;;;;;;35.55;25.30;;;15.50;94.70;;;;;;5027982;28;20085;-53
2021/06/26 00:33:55;;;;;;;39.05;28.70;;;15.50;94.80;;;;;;5025195;28;20095;-53
2021/06/26 00:36:21;;;;;;;40.72;27.98;;;15.50;94.80;;;;;;5014939;28;20034;-51
2021/06/26 00:38:46;;;;;;;41.78;30.73;;;15.40;94.80;;;;;;5012922;28;20413;-53
2021/06/26 00:41:12;;;;;;;45.63;32.55;;;15.40;94.80;;;;;;5013506;28;20133;-48
2021/06/26 00:43:38;;;;;;;45.78;31.20;;;15.40;94.90;;;;;;5020252;28;20497;-49
2021/06/26 00:46:03;;;;;;;46.13;32.15;;;15.40;94.90;;;;;;5017838;28;20069;-49
2021/06/26 00:48:29;;;;;;;49.88;32.88;;;15.40;94.90;;;;;;5013261;28;20490;-49
2021/06/26 00:50:55;;;;;;;44.95;32.20;;;15.50;94.90;;;;;;5013315;28;20432;-50
2021/06/26 00:53:20;;;;;;;49.40;32.17;;;15.40;94.90;;;;;;5015762;28;20040;-50
2021/06/26 00:55:53;;;;;;;47.95;32.90;;;15.40;95.00;;;;;;5029728;28;20555;-50
2021/06/26 00:58:19;;;;;;;;;;;15.40;95.10;;;;;;5031224;28;20509;-50
2021/06/26 01:00:45;;;;;;;48.65;33.55;;;15.40;95.10;;;;;;5020902;28;19917;-51
2021/06/26 01:03:11;;;;;;;54.20;34.78;;;15.30;95.10;;;;;;5018701;28;20045;-50
2021/06/26 01:05:37;;;;;;;51.25;34.47;;;15.30;95.20;;;;;;5012972;28;20084;-50
2021/06/26 01:08:03;;;;;;;50.85;33.92;;;15.30;95.20;;;;;;5012822;28;20414;-50
2021/06/26 01:10:34;;;;;;;;;;;15.30;95.20;;;;;;4997496;28;20037;-50
2021/06/26 01:13:00;;;;;;;50.97;34.17;;;15.40;95.10;;;;;;5012841;28;20385;-50
2021/06/26 01:15:26;;;;;;;57.80;35.65;;;15.30;95.10;;;;;;5010137;28;20586;-51
2021/06/26 01:17:51;;;;;;;53.00;34.55;;;15.40;95.10;;;;;;5004027;28;20034;-50
2021/06/26 01:20:18;;;;;;;51.50;35.13;;;15.30;95.20;;;;;;5013007;28;20065;-49
2021/06/26 01:22:47;;;;;;;48.88;35.53;;;15.30;95.20;;;;;;5012499;28;20046;-49
2021/06/26 01:25:15;;;;;;;51.85;35.72;;;15.40;95.30;;;;;;4995180;28;20050;-49
2021/06/26 01:27:42;;;;;;;52.10;33.53;;;15.40;95.30;;;;;;5013590;28;20038;-50
2021/06/26 01:30:09;;;;;;;55.30;36.08;;;15.40;95.30;;;;;;4995151;28;20140;-50
2021/06/26 01:32:35;;;;;;;54.85;34.35;;;15.40;95.40;;;;;;5011912;28;20481;-50
2021/06/26 01:35:01;;;;;;;51.97;35.55;;;15.30;95.40;;;;;;5011875;28;20121;-51
2021/06/26 01:37:27;;;;;;;56.85;34.88;;;15.30;95.50;;;;;;5012912;28;20065;-50
2021/06/26 01:39:53;;;;;;;54.72;35.75;;;15.40;95.50;;;;;;5012202;28;20073;-51
2021/06/26 01:42:18;;;;;;;52.33;36.38;;;15.30;95.40;;;;;;5012372;28;20046;-49
2021/06/26 01:44:44;;;;;;;42.58;30.98;;;15.30;95.50;;;;;;5011398;28;20038;-50
2021/06/26 01:47:10;;;;;;;45.72;30.98;;;15.30;95.60;;;;;;5011071;28;20041;-50
2021/06/26 01:49:37;;;;;;;39.33;27.70;;;15.30;95.50;;;;;;4994534;28;20048;-50
2021/06/26 01:52:03;;;;;;;41.70;29.25;;;15.30;95.50;;;;;;5011766;28;20056;-49
2021/06/26 01:54:30;;;;;;;47.97;32.10;;;15.40;95.50;;;;;;5011714;28;20046;-49
2021/06/26 01:56:56;;;;;;;56.15;36.80;;;15.30;95.40;;;;;;5011796;28;20038;-50
2021/06/26 01:59:22;;;;;;;54.63;36.65;;;15.40;95.50;;;;;;5011372;28;20080;-51
2021/06/26 02:01:48;;;;;;;55.40;36.65;;;15.40;95.50;;;;;;5011665;28;20041;-53
2021/06/26 02:04:14;;;;;;;53.67;36.90;;;15.40;95.50;;;;;;4993092;28;20057;-49
2021/06/26 02:06:39;;;;;;;56.15;36.97;;;15.40;95.50;;;;;;5017392;28;20030;-50
2021/06/26 02:09:07;;;;;;;58.67;37.20;;;15.40;95.50;;;;;;5012249;28;20505;-50
2021/06/26 02:11:35;;;;;;;59.03;36.53;;;15.40;95.50;;;;;;4994085;28;20099;-51
2021/06/26 02:14:00;;;;;;;51.20;36.30;;;15.40;95.60;;;;;;5012274;28;20037;-54
2021/06/26 02:16:28;;;;;;;55.47;36.63;;;15.40;95.60;;;;;;5011075;28;20050;-50
2021/06/26 02:18:58;;;;;;;56.85;35.83;;;15.40;95.60;;;;;;4979310;28;20550;-52
2021/06/26 02:21:24;;;;;;;56.90;36.78;;;15.40;95.60;;;;;;4977309;28;20409;-50
2021/06/26 02:23:51;;;;;;;51.92;35.90;;;15.40;95.60;;;;;;5010983;28;20048;-50
2021/06/26 02:26:18;;;;;;;53.00;35.53;;;15.40;95.60;;;;;;5010259;28;20061;-51
2021/06/26 02:28:44;;;;;;;51.58;34.38;;;15.40;95.60;;;;;;4994281;28;20046;-50
2021/06/26 02:31:10;;;;;;;54.08;34.47;;;15.40;95.70;;;;;;5010251;28;20092;-51
2021/06/26 02:33:36;;;;;;;55.97;36.05;;;15.40;95.60;;;;;;5011150;28;20041;-50
2021/06/26 02:36:02;;;;;;;53.97;37.08;;;15.40;95.70;;;;;;5009707;28;20601;-50
2021/06/26 02:38:28;;;;;;;58.65;36.28;;;15.50;95.70;;;;;;5011591;28;20049;-52
2021/06/26 02:40:54;;;;;;;51.83;34.67;;;15.40;95.70;;;;;;5025270;28;20046;-50
2021/06/26 02:43:20;;;;;;;56.13;37.00;;;15.40;95.70;;;;;;4999772;28;20045;-50
2021/06/26 02:45:47;;;;;;;50.50;35.67;;;15.40;95.70;;;;;;5004223;28;20069;-53
2021/06/26 02:48:13;;;;;;;54.95;36.25;;;15.40;95.70;;;;;;5011574;28;20041;-52
2021/06/26 02:50:41;;;;;;;44.70;31.10;;;15.40;95.80;;;;;;5000330;28;20414;-53
2021/06/26 02:53:07;;;;;;;47.25;31.98;;;15.40;95.80;;;;;;5011074;28;20502;-51
2021/06/26 02:55:32;;;;;;;50.95;33.70;;;15.40;95.80;;;;;;5010197;28;20042;-50
2021/06/26 02:57:58;;;;;;;53.20;35.67;;;15.50;95.80;;;;;;4994506;28;20050;-51
2021/06/26 03:00:25;;;;;;;53.03;35.33;;;15.50;95.80;;;;;;5013546;28;20087;-52
2021/06/26 03:02:51;;;;;;;52.70;35.60;;;15.50;95.80;;;;;;4976194;28;20049;-51
2021/06/26 03:05:18;;;;;;;56.47;36.80;;;15.50;95.80;;;;;;5009874;28;20115;-52
2021/06/26 03:07:54;;;;;;;58.08;37.45;;;15.50;95.80;;;;;;5011152;28;20426;-50
2021/06/26 03:10:21;;;;;;;55.75;35.08;;;15.50;95.90;;;;;;5010445;28;20045;-50
2021/06/26 03:12:47;;;;;;;57.35;37.72;;;15.50;95.90;;;;;;5010201;28;20686;-51
2021/06/26 03:15:16;;;;;;;56.65;37.95;;;15.50;95.90;;;;;;4992539;28;20165;-52
2021/06/26 03:17:42;;;;;;;56.95;37.58;;;15.50;95.90;;;;;;5012801;28;20053;-53
2021/06/26 03:20:08;;;;;;;57.67;37.63;;;15.50;95.80;;;;;;5014336;28;20042;-52
2021/06/26 03:22:34;;;;;;;58.30;36.45;;;15.50;95.80;;;;;;5014118;28;20177;-50
2021/06/26 03:25:01;;;;;;;60.40;41.10;;;15.50;95.90;;;;;;5013113;28;20049;-51
2021/06/26 03:27:27;;;;;;;65.03;38.97;;;15.50;95.90;;;;;;5013558;28;20053;-52
2021/06/26 03:29:53;;;;;;;67.95;39.70;;;15.50;95.90;;;;;;5014290;28;20030;-51
2021/06/26 03:32:19;;;;;;;64.20;38.70;;;15.50;96.00;;;;;;5012402;28;20773;-51
2021/06/26 03:34:46;;;;;;;60.15;37.85;;;15.50;96.00;;;;;;5013164;28;20604;-54
2021/06/26 03:37:12;;;;;;;55.00;37.35;;;15.50;96.00;;;;;;5023849;28;20136;-54
2021/06/26 03:39:40;;;;;;;57.20;37.03;;;15.50;96.00;;;;;;5014872;28;20120;-53
2021/06/26 03:42:08;;;;;;;57.63;37.45;;;15.50;96.10;;;;;;5013066;28;20053;-53
2021/06/26 03:44:34;;;;;;;59.22;37.75;;;15.50;96.10;;;;;;5011947;28;20046;-53
2021/06/26 03:47:00;;;;;;;53.65;35.67;;;15.60;96.00;;;;;;5013087;28;20041;-51
2021/06/26 03:49:25;;;;;;;56.08;36.67;;;15.60;96.00;;;;;;5026171;28;20517;-51
2021/06/26 03:51:51;;;;;;;62.55;38.60;;;15.60;96.00;;;;;;5003469;28;20137;-52
2021/06/26 03:54:16;;;;;;;60.33;37.47;;;15.60;96.00;;;;;;5023194;28;20045;-53
2021/06/26 03:56:42;;;;;;;66.07;39.65;;;15.50;96.10;;;;;;5013124;28;20034;-53
2021/06/26 03:59:08;;;;;;;61.85;39.28;;;15.50;96.10;;;;;;5013819;28;20134;-53
2021/06/26 04:01:33;;;;;;;67.38;40.03;;;15.50;96.10;;;;;;5013251;28;20066;-52
2021/06/26 04:03:59;;;;;;;66.43;42.25;;;15.60;96.10;;;;;;5014855;28;20111;-54
2021/06/26 04:06:24;;;;;;;63.08;39.85;;;15.60;96.20;;;;;;5012216;28;20045;-52
2021/06/26 04:08:50;;;;;;;62.45;39.33;;;15.60;96.20;;;;;;5013211;28;20030;-52
2021/06/26 04:11:36;;;;;;;54.58;37.13;;;15.60;96.10;;;;;;5000024;28;20054;-51
2021/06/26 04:14:01;;;;;;;62.75;38.38;;;15.60;96.20;;;;;;5013393;28;20511;-54
2021/06/26 04:16:27;;;;;;;64.10;39.53;;;15.60;96.20;;;;;;5013401;28;20383;-50
2021/06/26 04:18:53;;;;;;;59.58;37.83;;;15.70;96.30;;;;;;5013325;28;20033;-53
2021/06/26 04:21:18;;;;;;;66.35;40.42;;;15.70;96.40;;;;;;5012882;28;20042;-53
2021/06/26 04:23:44;;;;;;;60.85;39.53;;;15.70;96.20;;;;;;5013427;28;20045;-51
2021/06/26 04:26:09;;;;;;;64.03;42.08;;;15.70;96.20;;;;;;5011765;28;20490;-52
2021/06/26 04:28:36;;;;;;;63.25;40.97;;;15.70;96.20;;;;;;5012066;28;20568;-51
2021/06/26 04:31:01;;;;;;;61.20;40.58;;;15.80;96.20;;;;;;5013053;28;20042;-52
2021/06/26 04:33:28;;;;;;;62.38;40.50;;;15.80;96.30;;;;;;5012401;28;20096;-52
2021/06/26 04:35:54;;;;;;;66.13;41.35;;;15.90;96.20;;;;;;5012433;28;20056;-51
2021/06/26 04:38:23;;;;;;;65.95;42.03;;;15.90;96.20;;;;;;5012044;28;20491;-51
2021/06/26 04:40:50;;;;;;;70.03;42.13;;;16.00;96.10;;;;;;4999655;28;20577;-50
2021/06/26 04:43:16;;;;;;;67.68;41.78;;;16.00;96.00;;;;;;5012546;28;20069;-49
2021/06/26 04:45:46;;;;;;;70.40;42.35;;;16.00;96.00;;;;;;5012435;28;20072;-50
2021/06/26 04:48:15;;;;;;;65.65;42.45;;;16.00;96.00;;;;;;5012512;28;20049;-50
2021/06/26 04:50:41;;;;;;;63.03;40.50;;;16.00;95.90;;;;;;4975054;28;20388;-52
2021/06/26 04:53:07;;;;;;;67.25;43.45;;;16.00;95.90;;;;;;5004120;28;20049;-51
2021/06/26 04:55:33;;;;;;;64.00;41.78;;;16.10;95.80;;;;;;5011800;28;20430;-53
2021/06/26 04:57:58;;;;;;;65.15;42.58;;;16.10;95.80;;;;;;5012273;28;20072;-48
2021/06/26 05:00:24;;;;;;;65.18;42.20;;;16.20;95.80;;;;;;5011885;28;20553;-51
2021/06/26 05:02:50;;;;;;;54.60;38.03;;;16.30;95.80;;;;;;5019340;28;20037;-50
2021/06/26 05:05:15;;;;;;;56.72;39.47;;;16.40;95.80;;;;;;5027967;28;20498;-52
2021/06/26 05:07:41;;;;;;;56.15;38.80;;;16.50;95.70;;;;;;5016495;28;20037;-51
2021/06/26 05:10:07;;;;;;;56.85;39.72;;;16.60;95.60;;;;;;5014662;28;20128;-51
2021/06/26 05:12:33;;;;;;;55.97;40.10;;;16.80;95.50;;;;;;5031769;28;20042;-51
2021/06/26 05:14:59;;;;;;;53.22;37.53;;;17.00;95.20;;;;;;4998450;28;20068;-48
2021/06/26 05:17:24;;;;;;;53.47;38.63;;;17.00;94.80;;;;;;5012405;28;20140;-49
2021/06/26 05:19:50;;;;;;;56.28;40.38;;;17.10;94.70;;;;;;5012207;28;20789;-52
2021/06/26 05:22:15;;;;;;;58.22;38.88;;;17.10;94.50;;;;;;5011987;28;20057;-53
2021/06/26 05:24:42;;;;;;;56.58;39.60;;;17.20;94.40;;;;;;5007662;28;20097;-52
2021/06/26 05:27:08;;;;;;;51.65;38.88;;;17.30;94.20;;;;;;5012087;28;20053;-50
2021/06/26 05:29:36;;;;;;;54.40;38.85;;;17.40;94.10;;;;;;5006702;28;20096;-51
2021/06/26 05:32:02;;;;;;;53.03;37.30;;;17.50;94.00;;;;;;5012025;28;20041;-49
2021/06/26 05:34:28;;;;;;;52.35;38.03;;;17.50;93.80;;;;;;4992800;28;20125;-52
2021/06/26 05:36:54;;;;;;;51.58;38.38;;;17.60;93.70;;;;;;5011617;28;20444;-51
2021/06/26 05:39:19;;;;;;;49.47;38.58;;;17.60;93.70;;;;;;5011416;28;20045;-49
2021/06/26 05:41:46;;;;;;;47.33;35.85;;;17.70;93.60;;;;;;4994291;28;20344;-48
2021/06/26 05:44:13;;;;;;;50.42;37.63;;;17.70;93.60;;;;;;4981036;28;20061;-52
2021/06/26 05:46:39;;;;;;;51.28;38.42;;;17.80;93.60;;;;;;5011094;28;20045;-52
2021/06/26 05:49:05;;;;;;;50.05;36.25;;;17.80;93.60;;;;;;5011316;28;20567;-50
2021/06/26 05:51:30;;;;;;;51.30;37.92;;;17.80;93.60;;;;;;5012483;28;20041;-51
2021/06/26 05:53:57;;;;;;;53.00;38.53;;;17.90;93.50;;;;;;5013786;28;20180;-51
2021/06/26 05:56:23;;;;;;;49.28;37.25;;;17.90;93.40;;;;;;4973217;28;20137;-49
2021/06/26 05:58:49;;;;;;;51.05;38.38;;;18.00;93.30;;;;;;5022165;28;20046;-51
2021/06/26 06:01:15;;;;;;;56.38;38.30;;;18.10;93.20;;;;;;5021613;28;20522;-51
2021/06/26 06:03:40;;;;;;;54.17;38.00;;;18.20;92.80;;;;;;5013327;28;20038;-53
2021/06/26 06:06:08;;;;;;;53.67;38.25;;;18.20;92.00;;;;;;5011321;28;20466;-51
2021/06/26 06:08:34;;;;;;;51.25;38.92;;;18.20;91.70;;;;;;5012745;28;20045;-53
2021/06/26 06:11:00;;;;;;;57.42;38.65;;;18.20;91.70;;;;;;5013785;28;20454;-51
2021/06/26 06:13:26;;;;;;;53.30;37.45;;;18.20;91.80;;;;;;5016589;28;20482;-51
2021/06/26 06:15:52;;;;;;;52.22;36.95;;;18.20;91.80;;;;;;5012413;28;20061;-52
2021/06/26 06:18:19;;;;;;;49.45;35.58;;;18.30;91.50;;;;;;5011189;28;20069;-50
2021/06/26 06:20:46;;;;;;;46.63;34.70;;;18.30;90.80;;;;;;5011009;28;20033;-54
2021/06/26 06:23:12;;;;;;;48.28;34.63;;;18.30;90.90;;;;;;5011201;28;20049;-48
2021/06/26 06:25:39;;;;;;;50.38;35.72;;;18.30;90.50;;;;;;5010562;28;20095;-51
2021/06/26 06:28:05;;;;;;;49.83;36.22;;;18.20;90.70;;;;;;4979386;28;20073;-51
2021/06/26 06:30:35;;;;;;;50.20;36.35;;;18.30;90.70;;;;;;5010194;28;20037;-51
2021/06/26 06:33:02;;;;;;;47.47;35.35;;;18.30;90.30;;;;;;5010823;28;20041;-49
2021/06/26 06:35:28;;;;;;;51.72;36.72;;;18.30;90.70;;;;;;4990354;28;20064;-51
2021/06/26 06:37:54;;;;;;;48.70;36.78;;;18.40;89.70;;;;;;4993493;28;20487;-50
2021/06/26 06:40:20;;;;;;;53.58;37.97;;;18.40;89.90;;;;;;5015175;28;20125;-52
2021/06/26 06:42:45;;;;;;;46.58;35.08;;;18.40;89.40;;;;;;5007976;28;20086;-50
2021/06/26 06:45:13;;;;;;;49.35;37.47;;;18.30;89.90;;;;;;5013930;28;20053;-53
2021/06/26 06:47:40;;;;;;;52.65;38.42;;;18.30;90.10;;;;;;4996804;28;20057;-53
2021/06/26 06:50:07;;;;;;;52.20;37.97;;;18.30;90.30;;;;;;5007848;28;20029;-52
2021/06/26 06:52:33;;;;;;;51.13;37.05;;;18.30;90.10;;;;;;5012162;28;20038;-53
2021/06/26 06:54:59;;;;;;;51.75;37.08;;;18.40;90.30;;;;;;5014197;28;20115;-51
2021/06/26 06:57:25;;;;;;;50.60;37.03;;;18.40;90.20;;;;;;5012890;28;20042;-52
2021/06/26 06:59:54;;;;;;;52.92;37.50;;;18.40;90.20;;;;;;5008305;28;20104;-52
2021/06/26 07:02:20;;;;;;;48.78;36.20;;;18.50;90.30;;;;;;4995364;28;20439;-52
2021/06/26 07:04:46;;;;;;;48.00;35.83;;;18.50;90.50;;;;;;5014061;28;20088;-51
2021/06/26 07:07:12;;;;;;;48.70;35.80;;;18.50;90.20;;;;;;5009404;28;20061;-51
2021/06/26 07:09:39;;;;;;;46.83;35.38;;;18.70;90.20;;;;;;5012508;28;20046;-51
2021/06/26 07:12:05;;;;;;;51.85;35.35;;;18.80;88.90;;;;;;4997803;28;20076;-51
2021/06/26 07:14:31;;;;;;;49.42;35.17;;;18.80;89.00;;;;;;5010601;28;20049;-51
2021/06/26 07:16:56;;;;;;;44.97;34.35;;;18.90;89.10;;;;;;5018626;28;20042;-48
2021/06/26 07:19:22;;;;;;;41.97;31.92;;;19.10;89.80;;;;;;5012559;28;20140;-53
2021/06/26 07:21:49;;;;;;;44.63;32.28;;;19.30;89.70;;;;;;5010429;28;20410;-51
2021/06/26 07:24:15;;;;;;;45.35;33.92;;;19.40;88.90;;;;;;5017316;28;20410;-52
2021/06/26 07:26:41;;;;;;;43.72;32.00;;;19.50;88.60;;;;;;4972745;28;20042;-53
2021/06/26 07:29:07;;;;;;;47.75;34.97;;;19.60;87.50;;;;;;5006145;28;20044;-52
2021/06/26 07:31:34;;;;;;;43.30;32.70;;;19.70;86.90;;;;;;4987100;28;20410;-51
2021/06/26 07:34:00;;;;;;;42.67;33.58;;;19.80;86.40;;;;;;4992006;28;20142;-51
2021/06/26 07:36:26;;;;;;;43.92;31.65;;;19.90;86.20;;;;;;5012165;28;20053;-51
2021/06/26 07:38:52;;;;;;;40.65;30.40;;;19.90;85.60;;;;;;5020209;28;20038;-48
2021/06/26 07:41:18;;;;;;;39.22;29.92;;;20.00;85.30;;;;;;5007377;28;20069;-52
2021/06/26 07:43:43;;;;;;;40.47;31.27;;;20.10;82.40;;;;;;5012158;28;20042;-53
2021/06/26 07:46:09;;;;;;;38.42;29.27;;;20.10;83.50;;;;;;5010553;28;20048;-49
2021/06/26 07:48:35;;;;;;;38.45;26.88;;;20.20;83.30;;;;;;5014420;28;20041;-51
2021/06/26 07:51:02;;;;;;;31.63;25.08;;;20.30;83.20;;;;;;5014432;28;20042;-51
2021/06/26 07:53:28;;;;;;;36.42;26.95;;;20.30;83.00;;;;;;5016674;28;20422;-51
2021/06/26 07:55:53;;;;;;;35.53;26.83;;;20.40;82.00;;;;;;4999271;28;20046;-50
2021/06/26 07:58:24;;;;;;;34.75;25.25;;;20.40;83.40;;;;;;5015095;28;20042;-50
2021/06/26 08:00:51;;;;;;;34.83;26.10;;;20.50;82.40;;;;;;5000089;28;20049;-50
2021/06/26 08:03:17;;;;;;;36.50;28.63;;;20.50;82.90;;;;;;5017181;28;21192;-50
2021/06/26 08:05:43;;;;;;;37.15;27.90;;;20.60;82.30;;;;;;5014268;28;20443;-48
2021/06/26 08:08:10;;;;;;;39.65;29.25;;;20.60;83.00;;;;;;5014137;28;20040;-52
2021/06/26 08:10:36;;;;;;;33.95;26.05;;;20.60;83.30;;;;;;5019879;28;20137;-52
2021/06/26 08:13:02;;;;;;;36.42;27.48;;;20.70;83.50;;;;;;5016166;28;20049;-51
2021/06/26 08:15:28;;;;;;;36.38;27.45;;;20.70;83.40;;;;;;5005449;28;20510;-50
2021/06/26 08:17:55;;;;;;;38.40;28.35;;;20.70;81.90;;;;;;5010437;28;20036;-50
2021/06/26 08:20:21;;;;;;;37.15;28.15;;;20.80;81.70;;;;;;5023946;28;20093;-53
2021/06/26 08:22:47;;;;;;;35.42;26.50;;;20.70;82.30;;;;;;5027367;28;20124;-50
2021/06/26 08:25:12;;;;;;;36.03;27.75;;;20.70;83.50;;;;;;5020639;28;20125;-51
2021/06/26 08:27:38;;;;;;;38.20;28.15;;;20.70;83.00;;;;;;5007866;28;20567;-52
2021/06/26 08:30:05;;;;;;;35.50;26.38;;;20.70;82.00;;;;;;5028225;28;20091;-49
2021/06/26 08:32:31;;;;;;;37.05;26.27;;;20.70;82.10;;;;;;5030727;28;20045;-51
2021/06/26 08:34:57;;;;;;;36.90;26.30;;;20.70;81.40;;;;;;5011518;28;20095;-51
2021/06/26 08:37:23;;;;;;;32.13;26.05;;;20.60;82.30;;;;;;5027181;28;20042;-48
2021/06/26 08:39:49;;;;;;;31.17;24.58;;;20.60;81.30;;;;;;4995543;28;20061;-52
2021/06/26 08:42:17;;;;;;;29.27;23.48;;;20.70;82.00;;;;;;5030112;28;20073;-50
2021/06/26 08:44:49;;;;;;;30.92;23.58;;;20.70;81.50;;;;;;5025217;28;20382;-51
2021/06/26 08:47:15;;;;;;;29.17;22.45;;;20.80;80.40;;;;;;5029037;28;20099;-51
2021/06/26 08:49:41;;;;;;;27.42;21.13;;;20.80;82.00;;;;;;5028525;28;20108;-51
2021/06/26 08:52:07;;;;;;;26.48;20.60;;;21.00;79.20;;;;;;5022985;28;20492;-49
2021/06/26 08:54:33;;;;;;;27.10;19.45;;;21.00;79.50;;;;;;5029300;28;20038;-52
2021/06/26 08:56:58;;;;;;;20.58;17.35;;;21.10;79.80;;;;;;5011899;28;20049;-49
2021/06/26 08:59:24;;;;;;;22.92;16.92;;;21.20;79.40;;;;;;5030751;28;20544;-50
2021/06/26 09:01:50;;;;;;;23.15;17.95;;;21.30;78.60;;;;;;5020897;28;20064;-52
2021/06/26 09:04:19;;;;;;;23.77;18.10;;;21.50;76.70;;;;;;5013420;28;20069;-51
2021/06/26 09:06:57;;;;;;;18.67;15.40;;;21.60;77.40;;;;;;5002102;28;20076;-51
2021/06/26 09:09:32;;;;;;;24.35;17.88;;;21.60;77.70;;;;;;5017268;28;20505;-51
2021/06/26 09:12:09;;;;;;;24.77;19.25;;;21.70;77.60;;;;;;5020104;28;20443;-49
2021/06/26 09:14:36;;;;;;;25.58;18.95;;;21.80;77.40;;;;;;5009653;28;20041;-53
2021/06/26 09:17:04;;;;;;;26.92;20.30;;;21.80;78.00;;;;;;5007171;28;20549;-49
2021/06/26 09:19:31;;;;;;;26.52;20.40;;;21.90;76.80;;;;;;4996934;28;20034;-52
2021/06/26 09:22:04;;;;;;;25.33;20.10;;;21.90;76.80;;;;;;5013877;28;20050;-51
2021/06/26 09:24:44;;;;;;;27.27;19.08;;;22.00;76.00;;;;;;5015353;28;20093;-49
2021/06/26 09:27:12;;;;;;;21.77;17.98;;;22.00;76.70;;;;;;5005580;28;20115;-52
2021/06/26 09:29:51;;;;;;;25.63;18.63;;;22.10;75.40;;;;;;5003806;28;20065;-53
2021/06/26 09:32:26;;;;;;;21.42;16.20;;;22.00;73.60;;;;;;5010887;28;20056;-54
2021/06/26 09:34:53;;;;;;;19.85;16.40;;;21.80;75.10;;;;;;5005074;28;20076;-50
2021/06/26 09:37:27;;;;;;;18.92;14.18;;;21.60;76.10;;;;;;5006236;28;20048;-54
2021/06/26 09:39:57;;;;;;;20.73;16.33;;;21.50;77.50;;;;;;4996222;28;20069;-52
2021/06/26 09:42:36;;;;;;;22.10;14.93;;;21.40;77.80;;;;;;5007343;28;20109;-51
2021/06/26 09:45:05;;;;;;;21.38;16.15;;;21.40;78.20;;;;;;5004981;28;20049;-48
2021/06/26 09:47:41;;;;;;;21.48;15.82;;;21.50;77.80;;;;;;4999577;28;20470;-51
2021/06/26 09:50:21;;;;;;;18.05;14.43;;;21.60;75.80;;;;;;5007256;28;20045;-52
2021/06/26 09:52:53;;;;;;;19.02;13.27;;;21.60;75.90;;;;;;5005492;28;20052;-49
2021/06/26 09:55:34;;;;;;;16.40;12.43;;;21.70;76.20;;;;;;5000013;28;20135;-50
2021/06/26 09:58:19;;;;;;;14.55;10.85;;;21.90;74.60;;;;;;5017909;28;20038;-52
2021/06/26 10:00:46;;;;;;;13.38;10.50;;;22.10;75.00;;;;;;4995913;28;20056;-53
2021/06/26 10:03:18;;;;;;;15.55;11.13;;;22.20;72.30;;;;;;4996365;28;20046;-51
2021/06/26 10:05:46;;;;;;;14.25;10.73;;;22.20;72.40;;;;;;4976376;28;20060;-52
2021/06/26 10:08:14;;;;;;;15.35;8.80;;;22.30;72.60;;;;;;4977296;28;20124;-50
2021/06/26 10:10:40;;;;;;;15.73;8.10;;;22.30;72.80;;;;;;4973859;28;20050;-52
2021/06/26 10:13:06;;;;;;;10.10;7.97;;;22.40;73.40;;;;;;4991780;28;20041;-51
2021/06/26 10:15:33;;;;;;;9.88;7.97;;;22.60;71.80;;;;;;4974062;28;20327;-50
2021/06/26 10:18:00;;;;;;;10.00;7.20;;;22.70;69.20;;;;;;4992092;28;20089;-53
2021/06/26 10:20:27;;;;;;;9.60;6.47;;;22.60;69.70;;;;;;4976679;28;20030;-53
2021/06/26 10:22:56;;;;;;;10.80;6.55;;;22.50;71.00;;;;;;4991625;28;20050;-53
2021/06/26 10:25:28;;;;;;;9.23;5.93;;;22.50;72.30;;;;;;4976703;28;20053;-52
2021/06/26 10:28:17;;;;;;;8.60;6.32;;;22.60;70.30;;;;;;4976741;28;20039;-52
2021/06/26 10:31:15;;;;;;;8.57;5.63;;;22.60;68.50;;;;;;4974255;28;20395;-52
2021/06/26 10:33:41;;;;;;;7.65;6.15;;;22.60;71.40;;;;;;4991400;28;20077;-53
2021/06/26 10:36:07;;;;;;;8.20;6.05;;;22.70;71.60;;;;;;5005450;28;20038;-51
2021/06/26 10:38:45;;;;;;;8.77;6.10;;;22.60;70.60;;;;;;4992211;28;20093;-53
2021/06/26 10:41:19;;;;;;;7.25;5.43;;;22.70;68.60;;;;;;4975735;28;20388;-48
2021/06/26 10:43:57;;;;;;;12.93;5.55;;;22.70;70.50;;;;;;4974638;28;20113;-50
2021/06/26 10:46:23;;;;;;;7.20;4.90;;;22.60;69.80;;;;;;5004680;28;20509;-52
2021/06/26 10:48:57;;;;;;;6.18;4.75;;;22.70;71.40;;;;;;4991886;28;20058;-53
2021/06/26 10:51:38;;;;;;;6.47;5.03;;;22.80;69.70;;;;;;4991432;28;20120;-51
2021/06/26 10:54:18;;;;;;;9.13;5.05;;;22.90;70.00;;;;;;4991198;28;20580;-51
2021/06/26 10:56:47;;;;;;;6.28;4.85;;;23.00;67.90;;;;;;4991230;28;20541;-50
2021/06/26 10:59:18;;;;;;;6.88;5.10;;;23.10;69.10;;;;;;4991287;28;20046;-51
2021/06/26 11:01:55;;;;;;;6.35;4.32;;;23.10;68.70;;;;;;4975446;28;20068;-51
2021/06/26 11:04:21;;;;;;;5.30;4.43;;;23.10;68.50;;;;;;4986121;28;20038;-50
2021/06/26 11:06:52;;;;;;;7.22;4.50;;;23.20;68.20;;;;;;5007019;28;20232;-53
2021/06/26 11:09:19;;;;;;;7.15;4.72;;;23.30;67.80;;;;;;5012372;28;20045;-53
2021/06/26 11:11:48;;;;;;;5.93;4.53;;;23.40;67.50;;;;;;5011899;28;20038;-53
2021/06/26 11:14:24;;;;;;;6.28;4.90;;;23.50;66.70;;;;;;5009703;28;20382;-51
2021/06/26 11:16:57;;;;;;;6.72;4.78;;;23.60;66.10;;;;;;4993626;28;20421;-53
2021/06/26 11:19:29;;;;;;;6.50;5.07;;;23.60;64.30;;;;;;4993870;28;20041;-52
2021/06/26 11:21:55;;;;;;;;;;;23.70;64.40;;;;;;4996424;28;20038;-53
2021/06/26 11:24:36;;;;;;;5.90;4.70;;;23.70;65.30;;;;;;4991292;28;20382;-53
2021/06/26 11:27:04;;;;;;;6.25;4.70;;;23.80;66.00;;;;;;4991757;28;20518;-52
2021/06/26 11:29:32;;;;;;;8.20;4.60;;;23.90;66.50;;;;;;5011706;28;20057;-48
2021/06/26 11:32:00;;;;;;;6.18;4.22;;;24.10;66.20;;;;;;5010859;28;20499;-50
2021/06/26 11:34:31;;;;;;;5.65;4.38;;;24.20;64.40;;;;;;4977296;28;20042;-50
2021/06/26 11:37:05;;;;;;;7.20;4.53;;;24.30;64.00;;;;;;4998895;28;20101;-53
2021/06/26 11:39:32;;;;;;;6.53;4.07;;;24.40;61.30;;;;;;5013502;28;20763;-51
2021/06/26 11:41:58;;;;;;;6.35;5.10;;;24.40;62.90;;;;;;4997303;28;20495;-53
2021/06/26 11:44:40;;;;;;;5.88;4.20;;;24.40;60.30;;;;;;5012895;28;20049;-51
2021/06/26 11:47:08;;;;;;;5.55;4.13;;;24.40;62.20;;;;;;4997350;28;20060;-50
2021/06/26 11:49:46;;;;;;;5.10;4.20;;;24.50;62.70;;;;;;5014873;28;20111;-52
2021/06/26 11:52:15;;;;;;;4.50;3.60;;;24.60;62.60;;;;;;5013874;28;20490;-49
2021/06/26 11:54:42;;;;;;;6.25;3.97;;;24.80;62.60;;;;;;5013421;28;20129;-53
2021/06/26 11:57:12;;;;;;;4.93;4.05;;;24.90;62.20;;;;;;5016057;28;20414;-52
2021/06/26 11:59:43;;;;;;;6.45;4.10;;;25.00;62.40;;;;;;5014447;28;20100;-51
2021/06/26 12:02:13;;;;;;;4.70;3.70;;;25.00;62.40;;;;;;4980687;28;20101;-51
2021/06/26 12:04:39;;;;;;;6.22;4.00;;;25.10;63.80;;;;;;5015356;28;20034;-51
2021/06/26 12:07:07;;;;;;;5.72;4.10;;;25.10;62.80;;;;;;5008480;28;20415;-50
2021/06/26 12:09:34;;;;;;;6.43;4.53;;;25.20;63.70;;;;;;4982756;28;20375;-51
2021/06/26 12:12:01;;;;;;;5.15;4.50;;;25.20;63.00;;;;;;5015230;28;20061;-52
2021/06/26 12:14:29;;;;;;;7.28;4.30;;;25.10;62.20;;;;;;5017545;28;20042;-52
2021/06/26 12:17:12;;;;;;;6.20;3.80;;;25.00;62.30;;;;;;5000945;28;20483;-51
2021/06/26 12:19:38;;;;;;;4.60;3.20;;;25.00;62.90;;;;;;5016871;28;20521;-51
2021/06/26 12:22:06;;;;;;;4.10;3.40;;;25.20;60.30;;;;;;4997773;28;20057;-51
2021/06/26 12:24:38;;;;;;;6.18;3.45;;;25.20;59.50;;;;;;5017340;28;20106;-54
2021/06/26 12:27:10;;;;;;;4.32;3.30;;;25.30;58.90;;;;;;5014771;28;20042;-54
2021/06/26 12:29:37;;;;;;;5.07;3.50;;;25.30;59.10;;;;;;5002445;28;20042;-53
2021/06/26 12:32:04;;;;;;;5.43;3.50;;;25.40;60.20;;;;;;5004547;28;20411;-52
2021/06/26 12:34:30;;;;;;;4.40;3.30;;;25.30;59.40;;;;;;5001901;28;20046;-51